Airfield :
LOGIN :

Register | Disclaimer

   EN    FR    IT 

 










Legend :    VFR   Marginal VFR   IFR   Intensive IFR   Very Intensive IFR
Visi :
Ceiling :
>= 8 km
>= 3000ft
5 to 8 km
1000 to 3000 ft
1500m to 5 km
500 to 1000 ft
800 to 1500m
200 to 500 ft
< 800m
< 200 ft
Symbols :   Thunderstorms  Fog  Heavy snow  Heavy precipitations  Wind > 20 kt
SIGMETs :     Misc.  Thunderstorms  Icing  Turbulence  Mountain Waves  Volcanic Ashes






- Airport Elevation : 25 ft
- IATA code : TPS


LICT - Vincenzo Florio Trapani

CURRENT METAR :
  • 311855Z 20004KT CAVOK 31/18 Q1010 RMK SCT SCT200 VIS MIN 9999 WIND THR13 /////KT BLU

EXPIRED METARs :
  • 311755Z 24007KT CAVOK 33/17 Q1010 RMK SKC VIS MIN 9999 WIND THR13 /////KT BLU
  • 311655Z 24005KT CAVOK 35/17 Q1009 RMK SKC VIS MIN 9999 WIND THR13 /////KT BLU

TAF TAF LICT
Valid from the 31 at 18:00 until the 01 at 03:00 UTC


311700Z 3118/0103 14004KT CAVOK



MET'MAP, your aeronautical weather chart ! - Copyright ORBIFLY December 2007 - Disclaimer

ORBIFLY MET'MAP TEAM :

Programming & Development : Alexandra Zaïnal
Concept & original design : Baudouin d'Aumeries
Assistance for programming : Marc-Olivier Méhu
Technical & hardware support : Manuel Goepfert

Contact : metmap@orbifly.com




SOURCES & CREDITS :

   NOAA